Time,TemperatureF,DewpointF,PressureIn,WindDirection,WindDirectionDegrees,WindSpeedMPH,WindSpeedGustMPH,Humidity,HourlyPrecipIn,Conditions,Clouds,dailyrainin,SoftwareType,DateUTC
2013-01-09 00:07:00,38.1,33.0,29.96,SW,218,1.0,10.0,82,0.00,,,0.00,weatherlink.com 1.10,2013-01-09 06:07:00,
2013-01-09 00:22:00,37.8,33.0,29.96,SW,236,7.0,10.0,83,0.00,,,0.00,weatherlink.com 1.10,2013-01-09 06:22:00,
2013-01-09 00:37:00,37.5,33.0,29.97,WSW,254,3.0,9.0,84,0.00,,,0.00,weatherlink.com 1.10,2013-01-09 06:37:00,
2013-01-09 00:52:00,37.4,33.0,29.97,WSW,257,5.0,9.0,85,0.00,,,0.00,weatherlink.com 1.10,2013-01-09 06:52:00,
2013-01-09 01:07:00,37.5,33.0,29.98,West,262,5.0,11.0,85,0.00,,,0.00,weatherlink.com 1.10,2013-01-09 07:07:00,
2013-01-09 01:22:00,37.4,33.0,29.99,WSW,257,7.0,13.0,84,0.00,,,0.00,weatherlink.com 1.10,2013-01-09 07:22:00,
2013-01-09 01:37:00,37.1,33.0,30.00,West,264,4.0,16.0,84,0.00,,,0.00,weatherlink.com 1.10,2013-01-09 07:37:00,
2013-01-09 01:52:00,36.6,33.0,30.01,West,264,9.0,14.0,85,0.00,,,0.00,weatherlink.com 1.10,2013-01-09 07:52:00,
2013-01-09 02:07:00,36.0,32.0,30.02,West,264,6.0,14.0,86,0.00,,,0.00,weatherlink.com 1.10,2013-01-09 08:07:00,
2013-01-09 02:22:00,35.4,32.0,30.03,West,277,4.0,14.0,86,0.00,,,0.00,weatherlink.com 1.10,2013-01-09 08:22:00,
2013-01-09 02:37:00,34.8,31.0,30.03,West,267,6.0,9.0,87,0.00,,,0.00,weatherlink.com 1.10,2013-01-09 08:37:00,
2013-01-09 02:52:00,34.4,31.0,30.04,WSW,250,5.0,10.0,88,0.00,,,0.00,weatherlink.com 1.10,2013-01-09 08:52:00,
2013-01-09 03:07:00,34.3,31.0,30.05,WSW,255,5.0,13.0,88,0.00,,,0.00,weatherlink.com 1.10,2013-01-09 09:07:00,
2013-01-09 03:22:00,33.9,31.0,30.05,West,274,4.0,7.0,88,0.00,,,0.00,weatherlink.com 1.10,2013-01-09 09:22:00,
2013-01-09 03:37:00,33.5,31.0,30.05,West,271,3.0,6.0,89,0.00,,,0.00,weatherlink.com 1.10,2013-01-09 09:37:00,
2013-01-09 03:53:00,33.3,31.0,30.06,West,263,4.0,6.0,90,0.00,,,0.00,weatherlink.com 1.10,2013-01-09 09:53:00,
2013-01-09 04:08:00,32.9,30.0,30.08,West,268,4.0,7.0,90,0.00,,,0.00,weatherlink.com 1.10,2013-01-09 10:08:00,
2013-01-09 04:23:00,32.6,30.0,30.09,West,267,4.0,6.0,90,0.00,,,0.00,weatherlink.com 1.10,2013-01-09 10:23:00,
2013-01-09 04:38:00,32.9,30.0,30.09,WSW,251,8.0,8.0,90,0.00,,,0.00,weatherlink.com 1.10,2013-01-09 10:38:00,
2013-01-09 04:53:00,32.5,30.0,30.09,WSW,255,3.0,7.0,90,0.00,,,0.00,weatherlink.com 1.10,2013-01-09 10:53:00,
2013-01-09 05:08:00,32.2,30.0,30.11,WSW,240,2.0,4.0,90,0.00,,,0.00,weatherlink.com 1.10,2013-01-09 11:08:00,
2013-01-09 05:23:00,31.2,29.0,30.11,SW,236,0.0,3.0,92,0.00,,,0.00,weatherlink.com 1.10,2013-01-09 11:23:00,
2013-01-09 05:38:00,30.2,28.0,30.12,SSW,200,0.0,1.0,92,0.00,,,0.00,weatherlink.com 1.10,2013-01-09 11:38:00,
2013-01-09 05:53:00,30.2,29.0,30.12,WSW,257,0.0,2.0,93,0.00,,,0.00,weatherlink.com 1.10,2013-01-09 11:53:00,
2013-01-09 06:08:00,29.6,28.0,30.13,SW,224,0.0,1.0,94,0.00,,,0.00,weatherlink.com 1.10,2013-01-09 12:08:00,
2013-01-09 06:23:00,28.7,28.0,30.14,SSE,164,0.0,1.0,96,0.00,,,0.00,weatherlink.com 1.10,2013-01-09 12:23:00,
2013-01-09 06:38:00,28.4,27.0,30.14,SSW,210,0.0,2.0,95,0.00,,,0.00,weatherlink.com 1.10,2013-01-09 12:38:00,
2013-01-09 06:53:00,28.4,27.0,30.14,SW,222,2.0,2.0,96,0.00,,,0.00,weatherlink.com 1.10,2013-01-09 12:53:00,
2013-01-09 07:08:00,29.3,28.0,30.16,SW,224,0.0,4.0,95,0.00,,,0.00,weatherlink.com 1.10,2013-01-09 13:08:00,
2013-01-09 07:23:00,29.9,28.0,30.16,WSW,242,1.0,5.0,93,0.00,,,0.00,weatherlink.com 1.10,2013-01-09 13:23:00,
2013-01-09 07:38:00,30.4,29.0,30.16,West,262,4.0,8.0,94,0.00,,,0.00,weatherlink.com 1.10,2013-01-09 13:38:00,
2013-01-09 07:53:00,32.5,30.0,30.16,West,264,3.0,8.0,90,0.00,,,0.00,weatherlink.com 1.10,2013-01-09 13:53:00,
2013-01-09 08:08:00,33.0,30.0,30.17,West,259,2.0,7.0,88,0.00,,,0.00,weatherlink.com 1.10,2013-01-09 14:08:00,
2013-01-09 08:23:00,32.0,29.0,30.18,WSW,237,2.0,4.0,90,0.00,,,0.00,weatherlink.com 1.10,2013-01-09 14:23:00,
2013-01-09 08:38:00,33.0,30.0,30.18,WSW,248,4.0,7.0,88,0.00,,,0.00,weatherlink.com 1.10,2013-01-09 14:38:00,
2013-01-09 08:53:00,34.1,31.0,30.20,WSW,252,4.0,9.0,87,0.00,,,0.00,weatherlink.com 1.10,2013-01-09 14:53:00,
2013-01-09 09:08:00,34.8,31.0,30.21,SW,235,9.0,9.0,85,0.00,,,0.00,weatherlink.com 1.10,2013-01-09 15:08:00,
2013-01-09 09:23:00,35.7,31.0,30.22,West,264,7.0,10.0,83,0.00,,,0.00,weatherlink.com 1.10,2013-01-09 15:23:00,
2013-01-09 09:38:00,36.5,31.0,30.21,WSW,240,3.0,9.0,81,0.00,,,0.00,weatherlink.com 1.10,2013-01-09 15:38:00,
2013-01-09 09:53:00,37.4,30.0,30.21,West,281,13.0,15.0,76,0.00,,,0.00,weatherlink.com 1.10,2013-01-09 15:53:00,
2013-01-09 10:08:00,37.8,30.0,30.23,NW,322,3.0,13.0,74,0.00,,,0.00,weatherlink.com 1.10,2013-01-09 16:08:00,
2013-01-09 10:23:00,38.1,30.0,30.23,WSW,255,5.0,12.0,73,0.00,,,0.00,weatherlink.com 1.10,2013-01-09 16:23:00,
2013-01-09 10:38:00,38.6,30.0,30.25,SW,232,10.0,11.0,72,0.00,,,0.00,weatherlink.com 1.10,2013-01-09 16:38:00,
2013-01-09 10:54:00,38.9,31.0,30.27,West,269,7.0,18.0,73,0.00,,,0.00,weatherlink.com 1.10,2013-01-09 16:54:00,
2013-01-09 11:09:00,38.2,31.0,30.28,West,259,13.0,17.0,74,0.00,,,0.00,weatherlink.com 1.10,2013-01-09 17:09:00,
2013-01-09 11:24:00,38.3,31.0,30.29,WNW,284,9.0,17.0,75,0.00,,,0.00,weatherlink.com 1.10,2013-01-09 17:24:00,
2013-01-09 11:39:00,38.3,31.0,30.30,West,271,17.0,22.0,74,0.00,,,0.00,weatherlink.com 1.10,2013-01-09 17:39:00,
2013-01-09 11:54:00,39.0,31.0,30.31,SW,229,7.0,18.0,74,0.00,,,0.00,weatherlink.com 1.10,2013-01-09 17:54:00,
2013-01-09 12:09:00,38.8,31.0,30.31,West,259,12.0,20.0,74,0.00,,,0.00,weatherlink.com 1.10,2013-01-09 18:09:00,
2013-01-09 12:24:00,38.9,31.0,30.30,West,259,18.0,19.0,73,0.00,,,0.00,weatherlink.com 1.10,2013-01-09 18:24:00,
2013-01-09 12:39:00,39.0,31.0,30.31,West,271,7.0,23.0,73,0.00,,,0.00,weatherlink.com 1.10,2013-01-09 18:39:00,
2013-01-09 12:54:00,39.7,30.0,30.30,West,261,15.0,23.0,69,0.00,,,0.00,weatherlink.com 1.10,2013-01-09 18:54:00,
2013-01-09 13:09:00,39.5,30.0,30.31,West,259,15.0,22.0,70,0.00,,,0.00,weatherlink.com 1.10,2013-01-09 19:09:00,
2013-01-09 13:24:00,39.5,31.0,30.32,West,262,14.0,16.0,71,0.00,,,0.00,weatherlink.com 1.10,2013-01-09 19:24:00,
2013-01-09 13:39:00,39.6,31.0,30.32,West,259,12.0,19.0,71,0.00,,,0.00,weatherlink.com 1.10,2013-01-09 19:39:00,
2013-01-09 13:54:00,39.7,30.0,30.34,West,267,10.0,18.0,69,0.00,,,0.00,weatherlink.com 1.10,2013-01-09 19:54:00,
2013-01-09 14:09:00,40.1,30.0,30.34,West,267,7.0,10.0,68,0.00,,,0.00,weatherlink.com 1.10,2013-01-09 20:09:00,
2013-01-09 14:24:00,40.0,30.0,30.35,WNW,283,8.0,16.0,67,0.00,,,0.00,weatherlink.com 1.10,2013-01-09 20:24:00,
2013-01-09 14:39:00,40.0,29.0,30.37,West,263,11.0,19.0,66,0.00,,,0.00,weatherlink.com 1.10,2013-01-09 20:39:00,
2013-01-09 14:54:00,40.1,29.0,30.36,West,262,13.0,17.0,66,0.00,,,0.00,weatherlink.com 1.10,2013-01-09 20:54:00,
2013-01-09 15:09:00,40.0,30.0,30.34,WSW,243,12.0,19.0,67,0.00,,,0.00,weatherlink.com 1.10,2013-01-09 21:09:00,
2013-01-09 15:24:00,40.3,31.0,30.35,West,276,1.0,12.0,69,0.00,,,0.00,weatherlink.com 1.10,2013-01-09 21:24:00,
2013-01-09 15:39:00,39.5,30.0,30.36,SW,225,5.0,10.0,68,0.00,,,0.00,weatherlink.com 1.10,2013-01-09 21:39:00,
2013-01-09 15:54:00,38.4,30.0,30.36,WNW,283,4.0,7.0,71,0.00,,,0.00,weatherlink.com 1.10,2013-01-09 21:54:00,
2013-01-09 16:09:00,37.8,30.0,30.36,West,262,4.0,8.0,73,0.00,,,0.00,weatherlink.com 1.10,2013-01-09 22:09:00,
2013-01-09 16:24:00,37.6,30.0,30.36,WNW,284,2.0,8.0,74,0.00,,,0.00,weatherlink.com 1.10,2013-01-09 22:24:00,
2013-01-09 16:39:00,36.9,30.0,30.37,West,259,2.0,3.0,75,0.00,,,0.00,weatherlink.com 1.10,2013-01-09 22:39:00,
2013-01-09 16:54:00,36.2,30.0,30.38,WSW,245,1.0,3.0,77,0.00,,,0.00,weatherlink.com 1.10,2013-01-09 22:54:00,
2013-01-09 17:09:00,35.6,30.0,30.38,West,262,0.0,2.0,79,0.00,,,0.00,weatherlink.com 1.10,2013-01-09 23:09:00,
2013-01-09 17:24:00,35.0,29.0,30.39,SW,231,0.0,1.0,80,0.00,,,0.00,weatherlink.com 1.10,2013-01-09 23:24:00,
2013-01-09 17:39:00,33.5,29.0,30.39,ESE,118,2.0,2.0,82,0.00,,,0.00,weatherlink.com 1.10,2013-01-09 23:39:00,
2013-01-09 17:54:00,33.3,29.0,30.39,ESE,117,0.0,0.0,83,0.00,,,0.00,weatherlink.com 1.10,2013-01-09 23:54:00,
2013-01-09 18:09:00,32.4,28.0,30.40,West,259,0.0,1.0,85,0.00,,,0.00,weatherlink.com 1.10,2013-01-10 00:09:00,
2013-01-09 18:24:00,30.3,27.0,30.40,NNE,32,0.0,1.0,88,0.00,,,0.00,weatherlink.com 1.10,2013-01-10 00:24:00,
2013-01-09 18:39:00,29.9,27.0,30.40,NNE,23,1.0,1.0,88,0.00,,,0.00,weatherlink.com 1.10,2013-01-10 00:39:00,
2013-01-09 18:54:00,29.1,27.0,30.40,NE,46,1.0,1.0,90,0.00,,,0.00,weatherlink.com 1.10,2013-01-10 00:54:00,
2013-01-09 19:09:00,28.1,26.0,30.39,NNE,15,1.0,2.0,92,0.00,,,0.00,weatherlink.com 1.10,2013-01-10 01:09:00,
2013-01-09 19:24:00,28.2,27.0,30.39,East,80,1.0,4.0,93,0.00,,,0.00,weatherlink.com 1.10,2013-01-10 01:24:00,
2013-01-09 19:39:00,28.0,26.0,30.39,SE,134,0.0,1.0,92,0.00,,,0.00,weatherlink.com 1.10,2013-01-10 01:39:00,
2013-01-09 19:54:00,27.9,26.0,30.39,SW,236,1.0,2.0,94,0.00,,,0.00,weatherlink.com 1.10,2013-01-10 01:54:00,
2013-01-09 20:09:00,27.5,26.0,30.40,WSW,243,0.0,0.0,93,0.00,,,0.00,weatherlink.com 1.10,2013-01-10 02:09:00,
2013-01-09 20:24:00,26.8,25.0,30.41,WSW,245,0.0,1.0,94,0.00,,,0.00,weatherlink.com 1.10,2013-01-10 02:24:00,
2013-01-09 20:39:00,26.2,25.0,30.41,North,9,0.0,1.0,95,0.00,,,0.00,weatherlink.com 1.10,2013-01-10 02:39:00,
2013-01-09 20:55:00,25.7,25.0,30.42,SW,233,0.0,2.0,95,0.00,,,0.00,weatherlink.com 1.10,2013-01-10 02:55:00,
2013-01-09 21:10:00,25.7,25.0,30.42,SW,233,0.0,0.0,96,0.00,,,0.00,weatherlink.com 1.10,2013-01-10 03:10:00,
2013-01-09 21:25:00,24.9,24.0,30.42,SW,233,0.0,0.0,96,0.00,,,0.00,weatherlink.com 1.10,2013-01-10 03:25:00,
2013-01-09 21:40:00,25.0,24.0,30.42,SW,233,0.0,0.0,97,0.00,,,0.00,weatherlink.com 1.10,2013-01-10 03:40:00,
2013-01-09 21:55:00,24.2,23.0,30.42,ESE,117,0.0,1.0,96,0.00,,,0.00,weatherlink.com 1.10,2013-01-10 03:55:00,
2013-01-09 22:11:00,24.2,24.0,30.42,ESE,117,0.0,0.0,98,0.00,,,0.00,weatherlink.com 1.10,2013-01-10 04:11:00,
2013-01-09 22:25:00,23.9,23.0,30.43,ESE,117,0.0,0.0,97,0.00,,,0.00,weatherlink.com 1.10,2013-01-10 04:25:00,
2013-01-09 22:40:00,23.5,23.0,30.44,ESE,117,0.0,0.0,98,0.00,,,0.00,weatherlink.com 1.10,2013-01-10 04:40:00,
2013-01-09 22:55:00,23.0,23.0,30.45,ESE,117,0.0,0.0,98,0.00,,,0.00,weatherlink.com 1.10,2013-01-10 04:55:00,
2013-01-09 23:10:00,22.7,22.0,30.45,ESE,117,0.0,1.0,98,0.00,,,0.00,weatherlink.com 1.10,2013-01-10 05:10:00,
2013-01-09 23:25:00,22.2,22.0,30.44,ESE,117,0.0,1.0,97,0.00,,,0.00,weatherlink.com 1.10,2013-01-10 05:25:00,
2013-01-09 23:55:00,21.9,22.0,30.45,ESE,117,0.0,0.0,98,0.00,,,0.00,weatherlink.com 1.10,2013-01-10 05:55:00,